Terminal Aerodrome Forecast
Issued by NWS North Platte, NE

Home | Current Version | Previous Version | Text Only | Print | Product List | Glossary On
Versions: 1 2 3 4 5 6 7 8 9 10 11 12 13 14 15 16 17 18 19
000
FTUS43 KLBF 220500
TAFLBF
TAF
KLBF 220532Z 2206/2306 VRB05KT P6SM SCT150 BKN250
     FM221500 05007KT P6SM SKC
     FM230000 08005KT P6SM SCT050=

USA.gov is the U.S. government's official web portal to all federal, state and local government web resources and services.